Time;durP1;ratioP1;P1;durP2;ratioP2;P2;SDS_P1;SDS_P2;PMS_P1;PMS_P2;Temp;Humidity;BMP_temperature;BMP_pressure;BME280_temperature;BME280_humidity;BME280_pressure;Samples;Min_cycle;Max_cycle;Signal;HPM_P1;HPM_P2
2023/01/03 00:00:56;;;;;;;0.10;0.10;;;;;;;;;;4936340;29;20367;-68
2023/01/03 00:03:24;;;;;;;0.13;0.13;;;;;;;;;;4945860;29;20215;-68
2023/01/03 00:05:50;;;;;;;0.10;0.10;;;;;;;;;;4936125;29;20252;-68
2023/01/03 00:08:16;;;;;;;0.20;0.20;;;;;;;;;;4945678;29;20216;-68
2023/01/03 00:10:43;;;;;;;0.10;0.10;;;;;;;;;;4936347;29;20587;-68
2023/01/03 00:13:09;;;;;;;0.10;0.10;;;;;;;;;;4945636;29;20296;-69
2023/01/03 00:15:38;;;;;;;0.10;0.10;;;;;;;;;;4936272;29;20274;-68
2023/01/03 00:18:04;;;;;;;0.10;0.10;;;;;;;;;;4945400;29;20224;-68
2023/01/03 00:20:32;;;;;;;0.10;0.10;;;;;;;;;;4936123;29;20303;-69
2023/01/03 00:23:00;;;;;;;0.10;0.10;;;;;;;;;;4945458;29;20274;-69
2023/01/03 00:25:27;;;;;;;0.10;0.10;;;;;;;;;;4936366;29;20496;-69
2023/01/03 00:27:53;;;;;;;0.10;0.10;;;;;;;;;;4945490;29;20299;-69
2023/01/03 00:30:20;;;;;;;0.10;0.10;;;;;;;;;;4936369;29;20210;-68
2023/01/03 00:32:47;;;;;;;0.20;0.20;;;;;;;;;;4945243;29;20275;-68
2023/01/03 00:35:14;;;;;;;0.20;0.20;;;;;;;;;;4936240;29;20608;-70
2023/01/03 00:37:40;;;;;;;0.10;0.10;;;;;;;;;;4945380;29;20211;-70
2023/01/03 00:40:07;;;;;;;0.10;0.10;;;;;;;;;;4944985;29;20240;-70
2023/01/03 00:43:27;;;;;;;0.20;0.20;;;;;;;;;;4944536;29;20296;-72
2023/01/03 00:45:20;;;;;;;0.20;0.20;;;;;;;;;;4939918;29;20380;-71
2023/01/03 00:47:47;;;;;;;0.17;0.17;;;;;;;;;;4948855;29;20245;-72
2023/01/03 00:50:14;;;;;;;0.20;0.20;;;;;;;;;;4939974;29;20431;-72
2023/01/03 00:52:40;;;;;;;0.20;0.20;;;;;;;;;;4948765;29;20245;-72
2023/01/03 00:55:07;;;;;;;0.30;0.30;;;;;;;;;;4949501;29;20297;-69
2023/01/03 00:57:33;;;;;;;0.13;0.13;;;;;;;;;;4963029;28;20222;-70
2023/01/03 00:59:59;;;;;;;0.20;0.20;;;;;;;;;;4949834;29;20564;-69
2023/01/03 01:02:26;;;;;;;0.10;0.10;;;;;;;;;;4938736;29;20313;-68
2023/01/03 01:04:54;;;;;;;0.30;0.30;;;;;;;;;;4949806;29;20205;-69
2023/01/03 01:07:20;;;;;;;0.20;0.20;;;;;;;;;;4938552;29;20266;-69
2023/01/03 01:09:47;;;;;;;0.63;0.40;;;;;;;;;;4949463;29;20246;-69
2023/01/03 01:12:13;;;;;;;0.30;0.30;;;;;;;;;;4938513;29;20247;-70
2023/01/03 01:14:40;;;;;;;0.40;0.40;;;;;;;;;;4949218;29;20240;-70
2023/01/03 01:17:08;;;;;;;0.30;0.30;;;;;;;;;;4938249;29;20427;-70
2023/01/03 01:19:35;;;;;;;0.20;0.20;;;;;;;;;;4949344;29;20226;-70
2023/01/03 01:22:03;;;;;;;0.20;0.20;;;;;;;;;;4938278;29;20258;-69
2023/01/03 01:24:29;;;;;;;0.10;0.10;;;;;;;;;;4949152;29;20302;-69
2023/01/03 01:26:56;;;;;;;0.20;0.20;;;;;;;;;;4938280;29;20593;-70
2023/01/03 01:29:22;;;;;;;0.30;0.30;;;;;;;;;;4949269;29;20241;-69
2023/01/03 01:31:48;;;;;;;0.10;0.10;;;;;;;;;;4938413;29;20317;-69
2023/01/03 01:34:15;;;;;;;0.20;0.20;;;;;;;;;;4948977;29;20280;-68
2023/01/03 01:36:42;;;;;;;0.10;0.10;;;;;;;;;;4938476;29;20643;-68
2023/01/03 01:39:11;;;;;;;0.43;0.43;;;;;;;;;;4948859;29;20215;-68
2023/01/03 01:44:42;;;;;;;0.20;0.20;;;;;;;;;;4948875;29;20597;-69
2023/01/03 01:47:12;;;;;;;0.10;0.10;;;;;;;;;;4937933;29;20500;-69
2023/01/03 01:49:38;;;;;;;0.10;0.10;;;;;;;;;;4949028;29;20211;-69
2023/01/03 01:52:05;;;;;;;0.10;0.10;;;;;;;;;;4937801;29;20278;-69
2023/01/03 01:54:33;;;;;;;0.13;0.13;;;;;;;;;;4948549;29;20268;-69
2023/01/03 01:57:00;;;;;;;0.10;0.10;;;;;;;;;;4937710;29;20491;-69
2023/01/03 01:59:27;;;;;;;0.20;0.20;;;;;;;;;;4948422;29;20278;-68
2023/01/03 02:01:54;;;;;;;0.20;0.20;;;;;;;;;;4937813;29;20242;-69
2023/01/03 02:04:21;;;;;;;0.10;0.10;;;;;;;;;;4948283;29;20237;-68
2023/01/03 02:06:48;;;;;;;0.20;0.20;;;;;;;;;;4937728;29;20250;-69
2023/01/03 02:09:15;;;;;;;0.20;0.20;;;;;;;;;;4948407;29;20240;-68
2023/01/03 02:11:47;;;;;;;0.20;0.20;;;;;;;;;;4937795;29;20488;-68
2023/01/03 02:14:26;;;;;;;0.10;0.10;;;;;;;;;;4948061;29;20246;-69
2023/01/03 02:16:58;;;;;;;0.20;0.20;;;;;;;;;;4937442;29;20307;-69
2023/01/03 02:19:44;;;;;;;0.20;0.20;;;;;;;;;;4948513;29;20811;-69
2023/01/03 02:22:19;;;;;;;0.20;0.20;;;;;;;;;;4937203;29;20258;-69
2023/01/03 02:24:56;;;;;;;7.80;1.03;;;;;;;;;;4948163;29;20242;-69
2023/01/03 02:27:37;;;;;;;0.13;0.13;;;;;;;;;;4937241;29;20269;-70
2023/01/03 02:30:21;;;;;;;0.20;0.20;;;;;;;;;;4945499;29;20234;-68
2023/01/03 02:32:51;;;;;;;0.20;0.20;;;;;;;;;;4947941;29;20206;-68
2023/01/03 02:35:18;;;;;;;0.10;0.10;;;;;;;;;;4938067;29;20231;-69
2023/01/03 02:37:49;;;;;;;0.20;0.20;;;;;;;;;;4947190;29;20253;-69
2023/01/03 02:40:20;;;;;;;0.20;0.20;;;;;;;;;;4937876;29;20199;-69
2023/01/03 02:43:00;;;;;;;0.20;0.20;;;;;;;;;;4947119;29;20207;-69
2023/01/03 02:45:42;;;;;;;0.20;0.20;;;;;;;;;;4937940;29;20248;-69
2023/01/03 02:48:13;;;;;;;0.13;0.13;;;;;;;;;;4947118;29;20261;-69
2023/01/03 02:50:42;;;;;;;0.20;0.20;;;;;;;;;;4937527;29;20305;-69
2023/01/03 02:53:12;;;;;;;0.20;0.20;;;;;;;;;;4946727;29;20218;-70
2023/01/03 02:55:39;;;;;;;0.20;0.20;;;;;;;;;;4937324;29;20247;-69
2023/01/03 02:58:07;;;;;;;0.20;0.20;;;;;;;;;;4946860;29;20276;-70
2023/01/03 03:00:38;;;;;;;0.20;0.20;;;;;;;;;;4937571;29;20247;-70
2023/01/03 03:03:08;;;;;;;0.10;0.10;;;;;;;;;;4946777;29;20540;-69
2023/01/03 03:05:40;;;;;;;0.10;0.10;;;;;;;;;;4937201;29;20478;-69
2023/01/03 03:08:07;;;;;;;0.10;0.10;;;;;;;;;;4946493;29;20406;-69
2023/01/03 03:13:22;;;;;;;0.10;0.10;;;;;;;;;;4946648;29;20206;-69
2023/01/03 03:15:51;;;;;;;0.20;0.20;;;;;;;;;;4936765;29;20310;-70
2023/01/03 03:18:20;;;;;;;0.10;0.10;;;;;;;;;;4946359;29;20220;-71
2023/01/03 03:26:20;;;;;;;0.10;0.10;;;;;;;;;;4936546;29;20258;-69
2023/01/03 03:28:47;;;;;;;0.20;0.20;;;;;;;;;;4946416;29;20211;-70
2023/01/03 03:31:15;;;;;;;0.10;0.10;;;;;;;;;;4936536;29;20330;-69
2023/01/03 03:33:43;;;;;;;0.20;0.20;;;;;;;;;;4946536;29;20208;-69
2023/01/03 03:36:13;;;;;;;0.10;0.10;;;;;;;;;;4936301;29;20309;-69
2023/01/03 03:38:41;;;;;;;1.03;1.03;;;;;;;;;;4946418;29;20314;-68
2023/01/03 03:46:47;;;;;;;0.10;0.10;;;;;;;;;;4936029;29;20253;-68
2023/01/03 03:52:02;;;;;;;0.20;0.20;;;;;;;;;;4935733;29;20257;-70
2023/01/03 03:54:30;;;;;;;0.10;0.10;;;;;;;;;;4946713;29;20285;-69
2023/01/03 03:57:00;;;;;;;0.20;0.20;;;;;;;;;;4935616;29;20248;-67
2023/01/03 03:59:27;;;;;;;0.10;0.10;;;;;;;;;;4946342;29;20235;-68
2023/01/03 04:01:55;;;;;;;0.10;0.10;;;;;;;;;;4935682;29;20244;-68
2023/01/03 04:04:24;;;;;;;0.20;0.20;;;;;;;;;;4946522;29;20210;-68
2023/01/03 04:06:51;;;;;;;0.10;0.10;;;;;;;;;;4935591;29;20260;-69
2023/01/03 04:09:19;;;;;;;0.10;0.10;;;;;;;;;;4946357;29;20266;-68
2023/01/03 04:11:45;;;;;;;0.10;0.10;;;;;;;;;;4935758;29;20263;-69
2023/01/03 04:14:12;;;;;;;0.13;0.13;;;;;;;;;;4946291;29;20288;-69
2023/01/03 04:16:39;;;;;;;0.20;0.20;;;;;;;;;;4935686;29;20262;-69
2023/01/03 04:19:06;;;;;;;0.20;0.20;;;;;;;;;;4945900;29;20262;-69
2023/01/03 04:21:32;;;;;;;0.20;0.20;;;;;;;;;;4935508;29;20262;-69
2023/01/03 04:23:58;;;;;;;0.10;0.10;;;;;;;;;;4946062;29;20237;-69
2023/01/03 04:26:26;;;;;;;0.20;0.20;;;;;;;;;;4935775;29;20252;-69
2023/01/03 04:28:52;;;;;;;0.20;0.20;;;;;;;;;;4945987;29;20541;-70
2023/01/03 04:31:19;;;;;;;0.20;0.20;;;;;;;;;;4935806;29;20270;-69
2023/01/03 04:33:45;;;;;;;0.20;0.20;;;;;;;;;;4945888;29;20208;-69
2023/01/03 04:36:12;;;;;;;0.20;0.20;;;;;;;;;;4935631;29;20246;-70
2023/01/03 04:38:38;;;;;;;0.20;0.20;;;;;;;;;;4945782;29;20457;-68
2023/01/03 04:41:05;;;;;;;0.20;0.20;;;;;;;;;;4935867;29;20265;-69
2023/01/03 04:46:17;;;;;;;0.20;0.20;;;;;;;;;;4935705;29;20252;-68
2023/01/03 04:48:43;;;;;;;0.10;0.10;;;;;;;;;;4945659;29;20214;-69
2023/01/03 04:51:10;;;;;;;0.20;0.20;;;;;;;;;;4935687;29;20575;-69
2023/01/03 04:53:37;;;;;;;0.20;0.20;;;;;;;;;;4945580;29;20211;-69
2023/01/03 04:56:03;;;;;;;0.13;0.13;;;;;;;;;;4935698;29;20332;-69
2023/01/03 04:58:29;;;;;;;0.20;0.20;;;;;;;;;;4945312;29;20210;-69
2023/01/03 05:01:01;;;;;;;0.20;0.20;;;;;;;;;;4935992;29;20312;-69
2023/01/03 05:03:27;;;;;;;0.10;0.10;;;;;;;;;;4945196;29;20218;-68
2023/01/03 05:05:57;;;;;;;0.20;0.20;;;;;;;;;;4935616;29;20586;-69
2023/01/03 05:08:24;;;;;;;0.10;0.10;;;;;;;;;;4945352;29;20388;-69
2023/01/03 05:10:51;;;;;;;0.10;0.10;;;;;;;;;;4935834;29;20468;-69
2023/01/03 05:13:17;;;;;;;0.20;0.20;;;;;;;;;;4945106;29;20275;-70
2023/01/03 05:15:44;;;;;;;0.20;0.20;;;;;;;;;;4935792;29;20607;-69
2023/01/03 05:18:12;;;;;;;0.20;0.20;;;;;;;;;;4944748;29;20288;-69
2023/01/03 05:26:09;;;;;;;0.20;0.20;;;;;;;;;;4935396;29;20291;-69
2023/01/03 05:28:36;;;;;;;0.10;0.10;;;;;;;;;;4945260;29;20218;-68
2023/01/03 05:31:02;;;;;;;0.10;0.10;;;;;;;;;;4938200;29;20310;-69
2023/01/03 05:33:30;;;;;;;0.20;0.20;;;;;;;;;;4948184;29;20238;-69
2023/01/03 05:35:57;;;;;;;0.20;0.20;;;;;;;;;;4938793;29;20489;-68
2023/01/03 05:38:23;;;;;;;0.10;0.10;;;;;;;;;;4948264;29;20210;-68
2023/01/03 05:40:50;;;;;;;0.20;0.20;;;;;;;;;;4938700;29;20451;-69
2023/01/03 05:43:16;;;;;;;0.13;0.13;;;;;;;;;;4948375;29;20235;-68
2023/01/03 05:45:42;;;;;;;0.10;0.10;;;;;;;;;;4938676;29;20240;-68
2023/01/03 05:48:09;;;;;;;0.10;0.10;;;;;;;;;;4948029;29;20573;-69
2023/01/03 05:50:37;;;;;;;0.20;0.20;;;;;;;;;;4938945;29;20304;-68
2023/01/03 05:53:03;;;;;;;0.20;0.20;;;;;;;;;;4947901;29;20286;-69
2023/01/03 05:55:30;;;;;;;0.20;0.20;;;;;;;;;;4938455;29;20302;-68
2023/01/03 05:57:56;;;;;;;0.10;0.10;;;;;;;;;;4947834;29;20559;-68
2023/01/03 06:00:23;;;;;;;2.57;2.47;;;;;;;;;;4938754;29;20451;-68
2023/01/03 06:02:49;;;;;;;0.10;0.10;;;;;;;;;;4947824;29;20240;-69
2023/01/03 06:05:15;;;;;;;0.10;0.10;;;;;;;;;;4938538;29;20235;-69
2023/01/03 06:07:43;;;;;;;0.10;0.10;;;;;;;;;;4947475;29;20208;-69
2023/01/03 06:10:10;;;;;;;0.20;0.20;;;;;;;;;;4938687;29;20529;-68
2023/01/03 06:12:36;;;;;;;0.10;0.10;;;;;;;;;;4947440;29;20250;-68
2023/01/03 06:15:03;;;;;;;0.20;0.20;;;;;;;;;;4948342;29;20275;-69
2023/01/03 06:20:14;;;;;;;0.10;0.10;;;;;;;;;;4938357;29;20232;-68
2023/01/03 06:22:40;;;;;;;0.20;0.20;;;;;;;;;;4947117;29;20257;-69
2023/01/03 06:25:08;;;;;;;0.10;0.10;;;;;;;;;;4944242;29;20245;-68
2023/01/03 06:27:34;;;;;;;0.10;0.10;;;;;;;;;;4946963;29;20218;-68
2023/01/03 06:30:01;;;;;;;0.20;0.20;;;;;;;;;;4948032;29;20210;-69
2023/01/03 06:32:27;;;;;;;0.10;0.10;;;;;;;;;;4937112;29;20442;-68
2023/01/03 06:34:54;;;;;;;0.20;0.20;;;;;;;;;;4948255;29;20280;-68
2023/01/03 06:37:20;;;;;;;0.20;0.20;;;;;;;;;;4936957;29;20311;-68
2023/01/03 06:39:46;;;;;;;0.20;0.20;;;;;;;;;;4947839;29;20239;-69
2023/01/03 06:53:13;;;;;;;0.20;0.20;;;;;;;;;;4947023;29;20258;-68
2023/01/03 06:55:40;;;;;;;0.20;0.20;;;;;;;;;;4937635;29;20407;-69
2023/01/03 06:58:08;;;;;;;0.20;0.20;;;;;;;;;;4946843;29;20210;-68
2023/01/03 07:00:35;;;;;;;0.20;0.20;;;;;;;;;;4937361;29;20309;-68
2023/01/03 07:03:01;;;;;;;0.40;0.40;;;;;;;;;;4946745;29;20210;-68
2023/01/03 07:05:28;;;;;;;0.10;0.10;;;;;;;;;;4937484;29;20286;-68
2023/01/03 07:07:54;;;;;;;0.20;0.20;;;;;;;;;;4946701;29;20557;-68
2023/01/03 07:10:20;;;;;;;0.20;0.20;;;;;;;;;;4937493;29;20454;-67
2023/01/03 07:15:32;;;;;;;0.20;0.20;;;;;;;;;;4937228;29;20254;-68
2023/01/03 07:17:58;;;;;;;0.20;0.20;;;;;;;;;;4946118;29;20260;-69
2023/01/03 07:20:25;;;;;;;0.20;0.20;;;;;;;;;;4937063;29;20241;-68
2023/01/03 07:22:51;;;;;;;0.20;0.20;;;;;;;;;;4946261;29;20215;-68
2023/01/03 07:25:18;;;;;;;0.20;0.20;;;;;;;;;;4936899;29;20210;-69
2023/01/03 07:27:44;;;;;;;0.20;0.20;;;;;;;;;;4946043;29;20271;-68
2023/01/03 07:30:11;;;;;;;0.10;0.10;;;;;;;;;;4937351;29;20244;-68
2023/01/03 07:32:39;;;;;;;0.20;0.20;;;;;;;;;;4946105;29;20276;-68
2023/01/03 07:35:06;;;;;;;0.20;0.20;;;;;;;;;;4947047;29;20469;-68
2023/01/03 07:37:32;;;;;;;0.20;0.20;;;;;;;;;;4935804;29;20246;-68
2023/01/03 07:39:59;;;;;;;0.20;0.20;;;;;;;;;;4946775;29;20211;-68
2023/01/03 07:45:09;;;;;;;0.20;0.20;;;;;;;;;;4936888;29;20229;-69
2023/01/03 07:47:36;;;;;;;0.20;0.20;;;;;;;;;;4945631;29;20276;-69
2023/01/03 07:50:03;;;;;;;0.20;0.20;;;;;;;;;;4946575;29;20246;-69
2023/01/03 07:52:30;;;;;;;0.10;0.10;;;;;;;;;;4935418;29;20447;-69
2023/01/03 07:54:56;;;;;;;0.20;0.20;;;;;;;;;;4946862;29;20449;-69
2023/01/03 07:57:23;;;;;;;0.10;0.10;;;;;;;;;;4935574;29;20263;-69
2023/01/03 07:59:49;;;;;;;0.20;0.20;;;;;;;;;;4946480;29;20208;-70
2023/01/03 08:02:15;;;;;;;0.20;0.20;;;;;;;;;;4935590;29;20320;-69
2023/01/03 08:04:42;;;;;;;0.20;0.20;;;;;;;;;;4946665;29;20265;-69
2023/01/03 08:07:09;;;;;;;0.20;0.20;;;;;;;;;;4935525;29;20257;-68
2023/01/03 08:15:07;;;;;;;0.30;0.30;;;;;;;;;;4944958;29;20314;-69
2023/01/03 08:17:33;;;;;;;0.20;0.20;;;;;;;;;;4944066;29;20571;-69
2023/01/03 08:20:00;;;;;;;0.20;0.20;;;;;;;;;;4946240;29;20196;-69
2023/01/03 08:22:29;;;;;;;0.20;0.20;;;;;;;;;;4935404;29;20316;-69
2023/01/03 08:24:55;;;;;;;0.20;0.20;;;;;;;;;;4946514;29;20262;-69
2023/01/03 08:27:21;;;;;;;0.17;0.17;;;;;;;;;;4935347;29;20260;-69
2023/01/03 08:29:48;;;;;;;0.20;0.20;;;;;;;;;;4946348;29;20216;-69
2023/01/03 08:32:15;;;;;;;0.20;0.20;;;;;;;;;;4935517;29;20253;-69
2023/01/03 08:34:43;;;;;;;0.20;0.20;;;;;;;;;;4946374;29;20565;-69
2023/01/03 08:37:10;;;;;;;0.20;0.20;;;;;;;;;;4935194;29;20264;-68
2023/01/03 08:39:41;;;;;;;0.10;0.10;;;;;;;;;;4946094;29;20280;-68
2023/01/03 08:42:08;;;;;;;0.20;0.20;;;;;;;;;;4935209;29;20253;-69
2023/01/03 08:44:34;;;;;;;0.20;0.20;;;;;;;;;;4946291;29;20281;-69
2023/01/03 08:47:02;;;;;;;0.10;0.10;;;;;;;;;;4935269;29;20625;-70
2023/01/03 08:49:29;;;;;;;0.10;0.10;;;;;;;;;;4945810;29;20211;-69
2023/01/03 08:51:55;;;;;;;0.10;0.10;;;;;;;;;;4935131;29;20307;-68
2023/01/03 08:54:22;;;;;;;0.10;0.10;;;;;;;;;;4946067;29;20242;-69
2023/01/03 08:56:49;;;;;;;0.10;0.10;;;;;;;;;;4935284;29;20569;-68
2023/01/03 08:59:16;;;;;;;0.20;0.20;;;;;;;;;;4946004;29;20462;-69
2023/01/03 09:01:42;;;;;;;0.10;0.10;;;;;;;;;;4935429;29;20246;-69
2023/01/03 09:04:08;;;;;;;0.10;0.10;;;;;;;;;;4946190;29;20200;-69
2023/01/03 09:06:35;;;;;;;0.20;0.20;;;;;;;;;;4938927;29;20302;-68
2023/01/03 09:09:03;;;;;;;0.20;0.20;;;;;;;;;;4949560;29;20394;-72
2023/01/03 09:11:29;;;;;;;0.10;0.10;;;;;;;;;;4938883;29;20307;-72
2023/01/03 09:13:57;;;;;;;0.10;0.10;;;;;;;;;;4949286;29;20208;-69
2023/01/03 09:16:24;;;;;;;0.10;0.10;;;;;;;;;;4938910;29;20529;-73
2023/01/03 09:18:50;;;;;;;0.10;0.10;;;;;;;;;;4948961;29;20287;-74
2023/01/03 09:21:16;;;;;;;0.10;0.10;;;;;;;;;;4939036;29;20567;-70
2023/01/03 09:23:43;;;;;;;0.20;0.20;;;;;;;;;;4949055;29;20275;-73
2023/01/03 09:26:09;;;;;;;0.20;0.20;;;;;;;;;;4939015;29;20251;-71
2023/01/03 09:28:40;;;;;;;0.10;0.10;;;;;;;;;;4948834;29;20204;-70
2023/01/03 09:31:07;;;;;;;0.10;0.10;;;;;;;;;;4938848;29;20294;-67
2023/01/03 09:33:34;;;;;;;0.10;0.10;;;;;;;;;;4948689;29;20283;-71
2023/01/03 09:36:00;;;;;;;0.10;0.10;;;;;;;;;;4938784;29;20260;-69
2023/01/03 09:38:26;;;;;;;0.10;0.10;;;;;;;;;;4948426;29;20262;-68
2023/01/03 09:40:58;;;;;;;0.10;0.10;;;;;;;;;;4938778;29;20248;-68
2023/01/03 09:43:25;;;;;;;0.20;0.20;;;;;;;;;;4948518;29;20209;-68
2023/01/03 09:45:53;;;;;;;0.10;0.10;;;;;;;;;;4938832;29;20247;-67
2023/01/03 09:48:25;;;;;;;0.10;0.10;;;;;;;;;;4948380;29;20207;-67
2023/01/03 09:50:51;;;;;;;0.20;0.20;;;;;;;;;;4938565;29;20471;-68
2023/01/03 10:04:32;;;;;;;0.20;0.20;;;;;;;;;;4948458;29;20196;-67
2023/01/03 10:07:05;;;;;;;0.67;0.67;;;;;;;;;;4937649;29;20301;-68
2023/01/03 10:09:35;;;;;;;0.10;0.10;;;;;;;;;;4948436;29;20269;-68
2023/01/03 10:12:08;;;;;;;0.10;0.10;;;;;;;;;;4937446;29;20269;-67
2023/01/03 10:14:40;;;;;;;0.10;0.10;;;;;;;;;;4948658;29;20377;-66
2023/01/03 10:17:08;;;;;;;0.10;0.10;;;;;;;;;;4937026;29;20308;-67
2023/01/03 10:19:59;;;;;;;0.10;0.10;;;;;;;;;;4948566;29;20461;-68
2023/01/03 10:22:27;;;;;;;1.70;0.63;;;;;;;;;;4919511;29;20311;-67
2023/01/03 10:24:56;;;;;;;0.10;0.10;;;;;;;;;;4948503;29;20208;-67
2023/01/03 10:27:24;;;;;;;0.10;0.10;;;;;;;;;;4937300;29;20426;-65
2023/01/03 10:29:51;;;;;;;0.10;0.10;;;;;;;;;;4948386;29;20210;-65
2023/01/03 10:32:21;;;;;;;0.10;0.10;;;;;;;;;;4937168;29;20550;-67
2023/01/03 10:35:01;;;;;;;0.10;0.10;;;;;;;;;;4948336;29;20456;-67
2023/01/03 10:37:28;;;;;;;0.10;0.10;;;;;;;;;;4937180;29;20499;-68
2023/01/03 10:40:01;;;;;;;0.10;0.10;;;;;;;;;;4948015;29;20245;-68
2023/01/03 10:42:30;;;;;;;0.00;0.00;;;;;;;;;;4937199;29;20609;-68
2023/01/03 10:44:57;;;;;;;0.10;0.10;;;;;;;;;;4948111;29;20501;-67
2023/01/03 10:47:25;;;;;;;0.10;0.10;;;;;;;;;;4936986;29;20301;-67
2023/01/03 10:49:57;;;;;;;0.10;0.10;;;;;;;;;;4948057;29;20582;-67
2023/01/03 10:52:24;;;;;;;0.10;0.10;;;;;;;;;;4936963;29;20310;-67
2023/01/03 10:54:53;;;;;;;0.10;0.10;;;;;;;;;;4947971;29;20210;-68
2023/01/03 10:57:36;;;;;;;0.00;0.00;;;;;;;;;;4936734;29;20312;-66
2023/01/03 11:00:20;;;;;;;0.00;0.00;;;;;;;;;;4947593;29;20214;-67
2023/01/03 11:02:47;;;;;;;0.10;0.10;;;;;;;;;;4947588;29;20227;-67
2023/01/03 11:05:16;;;;;;;0.00;0.00;;;;;;;;;;4937576;29;20468;-68
2023/01/03 11:07:43;;;;;;;0.00;0.00;;;;;;;;;;4946504;29;20205;-67
2023/01/03 11:10:15;;;;;;;0.03;0.03;;;;;;;;;;4939025;29;20373;-65
2023/01/03 11:12:41;;;;;;;0.00;0.00;;;;;;;;;;4946414;29;20290;-72
2023/01/03 11:15:14;;;;;;;0.00;0.00;;;;;;;;;;4939013;29;20220;-69
2023/01/03 11:17:52;;;;;;;0.00;0.00;;;;;;;;;;4945905;29;20344;-69
2023/01/03 11:20:19;;;;;;;0.00;0.00;;;;;;;;;;4937374;29;20196;-69
2023/01/03 11:22:46;;;;;;;0.00;0.00;;;;;;;;;;4946202;29;20251;-69
2023/01/03 11:25:19;;;;;;;0.00;0.00;;;;;;;;;;4937112;29;20279;-67
2023/01/03 11:27:53;;;;;;;0.08;0.08;;;;;;;;;;4945544;29;20345;-65
2023/01/03 11:30:24;;;;;;;0.00;0.00;;;;;;;;;;4936940;29;20196;-70
2023/01/03 11:32:58;;;;;;;0.10;0.10;;;;;;;;;;4946102;29;20243;-70
2023/01/03 11:35:38;;;;;;;0.10;0.10;;;;;;;;;;4936699;29;20387;-73
2023/01/03 11:38:10;;;;;;;0.08;0.08;;;;;;;;;;4946081;29;20297;-70
2023/01/03 11:40:44;;;;;;;0.10;0.10;;;;;;;;;;4936713;29;20247;-70
2023/01/03 11:43:16;;;;;;;0.05;0.05;;;;;;;;;;4946205;29;20214;-70
2023/01/03 11:45:45;;;;;;;0.43;0.43;;;;;;;;;;4936732;29;20247;-69
2023/01/03 11:48:22;;;;;;;0.10;0.10;;;;;;;;;;4945910;29;20215;-69
2023/01/03 11:50:51;;;;;;;0.10;0.10;;;;;;;;;;4936577;29;20285;-70
2023/01/03 11:53:22;;;;;;;0.10;0.10;;;;;;;;;;4946023;29;20237;-69
2023/01/03 11:56:00;;;;;;;0.10;0.10;;;;;;;;;;4936417;29;20266;-70
2023/01/03 11:58:39;;;;;;;0.10;0.10;;;;;;;;;;4946090;29;20240;-69
2023/01/03 12:01:10;;;;;;;0.10;0.10;;;;;;;;;;4936354;29;20285;-69
2023/01/03 12:03:46;;;;;;;0.10;0.10;;;;;;;;;;4946167;29;20220;-69
2023/01/03 12:06:16;;;;;;;0.10;0.10;;;;;;;;;;4936229;29;20660;-70
2023/01/03 12:08:54;;;;;;;0.10;0.10;;;;;;;;;;4946074;29;20232;-70
2023/01/03 12:11:30;;;;;;;0.08;0.08;;;;;;;;;;4935883;29;20244;-70
2023/01/03 12:13:59;;;;;;;0.10;0.10;;;;;;;;;;4946207;29;20249;-70
2023/01/03 12:16:29;;;;;;;0.10;0.10;;;;;;;;;;4935694;29;20316;-69
2023/01/03 12:19:00;;;;;;;0.10;0.10;;;;;;;;;;4945770;29;20233;-71
2023/01/03 12:21:31;;;;;;;0.10;0.10;;;;;;;;;;4935764;29;20246;-71
2023/01/03 12:23:59;;;;;;;0.03;0.03;;;;;;;;;;4946052;29;20248;-74
2023/01/03 12:26:29;;;;;;;0.10;0.10;;;;;;;;;;4935755;29;20420;-68
2023/01/03 12:28:59;;;;;;;0.10;0.10;;;;;;;;;;4946036;29;20278;-66
2023/01/03 12:31:29;;;;;;;0.10;0.10;;;;;;;;;;4935752;29;20323;-66
2023/01/03 12:34:02;;;;;;;0.10;0.10;;;;;;;;;;4945907;29;20246;-70
2023/01/03 12:36:33;;;;;;;0.00;0.00;;;;;;;;;;4935615;29;20260;-66
2023/01/03 12:39:04;;;;;;;0.10;0.10;;;;;;;;;;4946061;29;20243;-66
2023/01/03 12:41:34;;;;;;;0.47;0.47;;;;;;;;;;4939802;29;20261;-68
2023/01/03 12:44:03;;;;;;;0.10;0.10;;;;;;;;;;4950016;29;20237;-75
2023/01/03 12:46:31;;;;;;;0.00;0.00;;;;;;;;;;4939411;29;20246;-65
2023/01/03 12:49:01;;;;;;;0.10;0.10;;;;;;;;;;4949897;29;20277;-67
2023/01/03 12:51:29;;;;;;;0.10;0.10;;;;;;;;;;4939427;29;20513;-66
2023/01/03 12:54:03;;;;;;;0.10;0.10;;;;;;;;;;4949657;29;20254;-70
2023/01/03 12:56:43;;;;;;;0.10;0.10;;;;;;;;;;4939287;29;20271;-69
2023/01/03 12:59:16;;;;;;;0.10;0.10;;;;;;;;;;4949446;29;20308;-68
2023/01/03 13:01:45;;;;;;;0.10;0.10;;;;;;;;;;4939094;29;20310;-67
2023/01/03 13:04:14;;;;;;;0.10;0.10;;;;;;;;;;4949677;29;20211;-67
2023/01/03 13:06:45;;;;;;;0.10;0.10;;;;;;;;;;4939077;29;20472;-68
2023/01/03 13:09:16;;;;;;;0.10;0.10;;;;;;;;;;4949594;29;20274;-67
2023/01/03 13:11:48;;;;;;;0.10;0.10;;;;;;;;;;4939036;29;20274;-67
2023/01/03 13:14:17;;;;;;;0.10;0.10;;;;;;;;;;4949490;29;20216;-66
2023/01/03 13:16:45;;;;;;;0.10;0.10;;;;;;;;;;4938719;29;20265;-67
2023/01/03 13:19:30;;;;;;;0.10;0.10;;;;;;;;;;4948994;29;20495;-67
2023/01/03 13:22:02;;;;;;;0.10;0.10;;;;;;;;;;4938561;29;20467;-67
2023/01/03 13:24:42;;;;;;;0.00;0.00;;;;;;;;;;4949538;29;20555;-69
2023/01/03 13:27:22;;;;;;;0.10;0.10;;;;;;;;;;4938294;29;20316;-68
2023/01/03 13:29:54;;;;;;;0.10;0.10;;;;;;;;;;4949369;29;20202;-67
2023/01/03 13:32:24;;;;;;;0.10;0.10;;;;;;;;;;4938294;29;20480;-66
2023/01/03 13:35:06;;;;;;;0.10;0.10;;;;;;;;;;4949186;29;20206;-67
2023/01/03 13:37:43;;;;;;;0.10;0.10;;;;;;;;;;4937709;29;20518;-67
2023/01/03 13:40:27;;;;;;;0.10;0.10;;;;;;;;;;4939118;29;20236;-67
2023/01/03 13:43:13;;;;;;;0.00;0.00;;;;;;;;;;4948266;29;20216;-65
2023/01/03 13:45:50;;;;;;;0.10;0.10;;;;;;;;;;4939157;29;20243;-66
2023/01/03 13:48:18;;;;;;;0.10;0.10;;;;;;;;;;4948414;29;20233;-66
2023/01/03 13:50:59;;;;;;;0.10;0.10;;;;;;;;;;4938309;29;20601;-66
2023/01/03 13:53:30;;;;;;;0.10;0.10;;;;;;;;;;4948099;29;20276;-65
2023/01/03 13:55:57;;;;;;;0.10;0.10;;;;;;;;;;4938632;29;20257;-65
2023/01/03 13:58:32;;;;;;;0.10;0.10;;;;;;;;;;4948246;29;20261;-65
2023/01/03 14:00:59;;;;;;;0.10;0.10;;;;;;;;;;4938522;29;20248;-65
2023/01/03 14:03:35;;;;;;;0.10;0.10;;;;;;;;;;4948205;29;20244;-66
2023/01/03 14:06:22;;;;;;;0.10;0.10;;;;;;;;;;4938558;29;20244;-65
2023/01/03 14:09:22;;;;;;;0.10;0.10;;;;;;;;;;4948362;29;20449;-65
2023/01/03 14:11:59;;;;;;;0.10;0.10;;;;;;;;;;4937931;29;20266;-65
2023/01/03 14:14:29;;;;;;;0.10;0.10;;;;;;;;;;4948677;29;20569;-65
2023/01/03 14:16:57;;;;;;;0.10;0.10;;;;;;;;;;4937607;29;20583;-65
2023/01/03 14:19:24;;;;;;;0.10;0.10;;;;;;;;;;4948043;29;20490;-66
2023/01/03 14:21:53;;;;;;;0.10;0.10;;;;;;;;;;4937622;29;20251;-66
2023/01/03 14:24:22;;;;;;;0.10;0.10;;;;;;;;;;4948369;29;20231;-66
2023/01/03 14:26:48;;;;;;;10.30;8.03;;;;;;;;;;4937543;29;20257;-65
2023/01/03 14:29:17;;;;;;;0.10;0.10;;;;;;;;;;4947870;29;20247;-66
2023/01/03 14:31:46;;;;;;;0.10;0.10;;;;;;;;;;4937488;29;20265;-65
2023/01/03 14:34:17;;;;;;;0.10;0.10;;;;;;;;;;4947995;29;20213;-65
2023/01/03 14:36:47;;;;;;;0.07;0.07;;;;;;;;;;4937374;29;20254;-66
2023/01/03 14:39:20;;;;;;;0.10;0.10;;;;;;;;;;4947909;29;20230;-66
2023/01/03 14:41:47;;;;;;;0.10;0.10;;;;;;;;;;4937446;29;20572;-66
2023/01/03 14:44:15;;;;;;;0.10;0.10;;;;;;;;;;4947820;29;20209;-66
2023/01/03 14:46:48;;;;;;;0.10;0.10;;;;;;;;;;4937204;29;20333;-65
2023/01/03 14:49:19;;;;;;;0.10;0.10;;;;;;;;;;4947886;29;20263;-66
2023/01/03 14:51:46;;;;;;;0.10;0.10;;;;;;;;;;4937208;29;20253;-65
2023/01/03 14:54:15;;;;;;;0.10;0.10;;;;;;;;;;4947739;29;20395;-66
2023/01/03 14:56:44;;;;;;;0.10;0.10;;;;;;;;;;4937121;29;20306;-66
2023/01/03 14:59:10;;;;;;;0.10;0.10;;;;;;;;;;4947486;29;20486;-65
2023/01/03 15:01:37;;;;;;;0.10;0.10;;;;;;;;;;4936473;29;20257;-65
2023/01/03 15:04:04;;;;;;;0.10;0.10;;;;;;;;;;4947081;29;20281;-66
2023/01/03 15:06:32;;;;;;;0.10;0.10;;;;;;;;;;4936831;29;20511;-66
2023/01/03 15:08:59;;;;;;;0.10;0.10;;;;;;;;;;4947360;29;20240;-66
2023/01/03 15:11:30;;;;;;;0.10;0.10;;;;;;;;;;4936888;29;20293;-65
2023/01/03 15:13:58;;;;;;;0.10;0.10;;;;;;;;;;4947228;29;20209;-66
2023/01/03 15:16:29;;;;;;;0.10;0.10;;;;;;;;;;4936725;29;20239;-66
2023/01/03 15:19:01;;;;;;;0.10;0.10;;;;;;;;;;4946687;29;20265;-66
2023/01/03 15:21:29;;;;;;;0.10;0.10;;;;;;;;;;4936540;29;20245;-66
2023/01/03 15:23:56;;;;;;;0.10;0.10;;;;;;;;;;4946968;29;20235;-64
2023/01/03 15:26:24;;;;;;;0.10;0.10;;;;;;;;;;4936744;29;20245;-66
2023/01/03 15:28:53;;;;;;;0.10;0.10;;;;;;;;;;4946891;29;20216;-66
2023/01/03 15:31:28;;;;;;;0.17;0.17;;;;;;;;;;4936497;29;20245;-66
2023/01/03 15:33:59;;;;;;;0.10;0.10;;;;;;;;;;4946894;29;20280;-65
2023/01/03 15:36:26;;;;;;;0.10;0.10;;;;;;;;;;4936543;29;20570;-65
2023/01/03 15:38:53;;;;;;;0.10;0.10;;;;;;;;;;4946679;29;20299;-65
2023/01/03 15:44:03;;;;;;;0.20;0.20;;;;;;;;;;4945860;29;20214;-66
2023/01/03 15:46:29;;;;;;;0.10;0.10;;;;;;;;;;4936286;29;20314;-66
2023/01/03 15:48:56;;;;;;;0.10;0.10;;;;;;;;;;4946708;29;20465;-65
2023/01/03 15:51:23;;;;;;;0.10;0.10;;;;;;;;;;4936271;29;20424;-65
2023/01/03 15:53:49;;;;;;;0.10;0.10;;;;;;;;;;4946442;29;20278;-66
2023/01/03 15:56:17;;;;;;;0.20;0.20;;;;;;;;;;4936135;29;20251;-65
2023/01/03 15:58:45;;;;;;;0.10;0.10;;;;;;;;;;4945938;29;20234;-66
2023/01/03 16:01:12;;;;;;;0.10;0.10;;;;;;;;;;4936186;29;20251;-66